sensor_id;sensor_type;location;lat;lon;timestamp;P1;durP1;ratioP1;P2;durP2;ratioP2
7108;SDS011;29079;41.930;25.558;2023-01-06T00:02:15;182.55;;;86.00;;
7108;SDS011;29079;41.930;25.558;2023-01-06T00:04:48;172.65;;;83.78;;
7108;SDS011;29079;41.930;25.558;2023-01-06T00:07:23;181.43;;;88.22;;
7108;SDS011;29079;41.930;25.558;2023-01-06T00:09:56;166.02;;;84.53;;
7108;SDS011;29079;41.930;25.558;2023-01-06T00:15:04;169.13;;;82.97;;
7108;SDS011;29079;41.930;25.558;2023-01-06T00:17:39;168.60;;;84.75;;
7108;SDS011;29079;41.930;25.558;2023-01-06T00:22:47;167.00;;;80.22;;
7108;SDS011;29079;41.930;25.558;2023-01-06T00:25:20;40.63;;;23.95;;
7108;SDS011;29079;41.930;25.558;2023-01-06T00:27:53;17.45;;;10.45;;
7108;SDS011;29079;41.930;25.558;2023-01-06T00:30:27;15.70;;;8.30;;
7108;SDS011;29079;41.930;25.558;2023-01-06T00:33:01;12.23;;;7.55;;
7108;SDS011;29079;41.930;25.558;2023-01-06T00:35:34;11.80;;;7.82;;
7108;SDS011;29079;41.930;25.558;2023-01-06T00:38:09;13.02;;;6.90;;
7108;SDS011;29079;41.930;25.558;2023-01-06T00:40:45;14.35;;;7.82;;
7108;SDS011;29079;41.930;25.558;2023-01-06T00:43:18;16.83;;;8.27;;
7108;SDS011;29079;41.930;25.558;2023-01-06T00:45:52;11.80;;;6.40;;
7108;SDS011;29079;41.930;25.558;2023-01-06T00:48:25;18.35;;;7.30;;
7108;SDS011;29079;41.930;25.558;2023-01-06T00:50:59;11.00;;;7.28;;
7108;SDS011;29079;41.930;25.558;2023-01-06T00:53:33;13.63;;;7.60;;
7108;SDS011;29079;41.930;25.558;2023-01-06T00:56:07;13.85;;;7.38;;
7108;SDS011;29079;41.930;25.558;2023-01-06T00:58:40;11.57;;;7.47;;
7108;SDS011;29079;41.930;25.558;2023-01-06T01:01:14;12.65;;;6.95;;
7108;SDS011;29079;41.930;25.558;2023-01-06T01:03:47;10.80;;;7.60;;
7108;SDS011;29079;41.930;25.558;2023-01-06T01:06:21;11.80;;;7.70;;
7108;SDS011;29079;41.930;25.558;2023-01-06T01:08:57;11.90;;;7.28;;
7108;SDS011;29079;41.930;25.558;2023-01-06T01:11:31;13.48;;;7.38;;
7108;SDS011;29079;41.930;25.558;2023-01-06T01:14:23;9.65;;;5.75;;
7108;SDS011;29079;41.930;25.558;2023-01-06T01:16:57;14.35;;;7.60;;
7108;SDS011;29079;41.930;25.558;2023-01-06T01:19:30;10.55;;;5.90;;
7108;SDS011;29079;41.930;25.558;2023-01-06T01:22:04;8.95;;;6.53;;
7108;SDS011;29079;41.930;25.558;2023-01-06T01:24:39;11.70;;;6.03;;
7108;SDS011;29079;41.930;25.558;2023-01-06T01:27:13;8.90;;;6.38;;
7108;SDS011;29079;41.930;25.558;2023-01-06T01:32:20;7.65;;;5.53;;
7108;SDS011;29079;41.930;25.558;2023-01-06T01:34:53;8.05;;;5.82;;
7108;SDS011;29079;41.930;25.558;2023-01-06T01:40:03;12.07;;;7.18;;
7108;SDS011;29079;41.930;25.558;2023-01-06T01:42:38;10.68;;;5.85;;
7108;SDS011;29079;41.930;25.558;2023-01-06T01:45:16;8.57;;;6.30;;
7108;SDS011;29079;41.930;25.558;2023-01-06T01:47:54;12.88;;;6.35;;
7108;SDS011;29079;41.930;25.558;2023-01-06T01:50:32;9.80;;;5.60;;
7108;SDS011;29079;41.930;25.558;2023-01-06T01:53:09;10.85;;;7.07;;
7108;SDS011;29079;41.930;25.558;2023-01-06T01:55:47;16.83;;;7.00;;
7108;SDS011;29079;41.930;25.558;2023-01-06T01:58:22;9.45;;;5.15;;
7108;SDS011;29079;41.930;25.558;2023-01-06T02:00:58;9.48;;;5.85;;
7108;SDS011;29079;41.930;25.558;2023-01-06T02:03:32;11.13;;;5.90;;
7108;SDS011;29079;41.930;25.558;2023-01-06T02:06:08;10.32;;;5.85;;
7108;SDS011;29079;41.930;25.558;2023-01-06T02:08:46;9.73;;;5.13;;
7108;SDS011;29079;41.930;25.558;2023-01-06T02:11:28;10.73;;;5.78;;
7108;SDS011;29079;41.930;25.558;2023-01-06T02:14:07;7.72;;;5.30;;
7108;SDS011;29079;41.930;25.558;2023-01-06T02:16:48;9.70;;;5.45;;
7108;SDS011;29079;41.930;25.558;2023-01-06T02:19:36;7.35;;;4.70;;
7108;SDS011;29079;41.930;25.558;2023-01-06T02:32:21;12.57;;;6.10;;
7108;SDS011;29079;41.930;25.558;2023-01-06T02:35:11;10.85;;;6.78;;
7108;SDS011;29079;41.930;25.558;2023-01-06T02:37:54;9.02;;;5.95;;
7108;SDS011;29079;41.930;25.558;2023-01-06T02:40:41;9.75;;;5.20;;
7108;SDS011;29079;41.930;25.558;2023-01-06T02:43:28;11.13;;;6.07;;
7108;SDS011;29079;41.930;25.558;2023-01-06T02:46:12;14.18;;;6.55;;
7108;SDS011;29079;41.930;25.558;2023-01-06T02:48:58;9.68;;;4.95;;
7108;SDS011;29079;41.930;25.558;2023-01-06T02:51:43;12.77;;;5.45;;
7108;SDS011;29079;41.930;25.558;2023-01-06T02:54:23;8.00;;;5.70;;
7108;SDS011;29079;41.930;25.558;2023-01-06T02:57:04;9.10;;;5.22;;
7108;SDS011;29079;41.930;25.558;2023-01-06T02:59:45;13.57;;;6.60;;
7108;SDS011;29079;41.930;25.558;2023-01-06T03:02:23;9.40;;;5.70;;
7108;SDS011;29079;41.930;25.558;2023-01-06T03:05:00;10.80;;;6.10;;
7108;SDS011;29079;41.930;25.558;2023-01-06T03:07:36;9.38;;;6.07;;
7108;SDS011;29079;41.930;25.558;2023-01-06T03:10:11;12.65;;;5.53;;
7108;SDS011;29079;41.930;25.558;2023-01-06T03:12:50;12.10;;;5.32;;
7108;SDS011;29079;41.930;25.558;2023-01-06T03:15:26;10.77;;;5.15;;
7108;SDS011;29079;41.930;25.558;2023-01-06T03:17:59;10.75;;;5.63;;
7108;SDS011;29079;41.930;25.558;2023-01-06T03:20:34;8.65;;;5.07;;
7108;SDS011;29079;41.930;25.558;2023-01-06T03:23:08;8.43;;;5.18;;
7108;SDS011;29079;41.930;25.558;2023-01-06T03:25:41;10.32;;;5.15;;
7108;SDS011;29079;41.930;25.558;2023-01-06T03:28:15;7.60;;;4.72;;
7108;SDS011;29079;41.930;25.558;2023-01-06T03:30:50;9.45;;;5.63;;
7108;SDS011;29079;41.930;25.558;2023-01-06T03:33:28;9.93;;;5.32;;
7108;SDS011;29079;41.930;25.558;2023-01-06T03:36:12;6.57;;;5.18;;
7108;SDS011;29079;41.930;25.558;2023-01-06T03:38:55;8.68;;;4.93;;
7108;SDS011;29079;41.930;25.558;2023-01-06T03:41:35;7.47;;;4.68;;
7108;SDS011;29079;41.930;25.558;2023-01-06T03:44:32;7.95;;;4.97;;
7108;SDS011;29079;41.930;25.558;2023-01-06T03:47:14;7.70;;;4.88;;
7108;SDS011;29079;41.930;25.558;2023-01-06T03:49:56;7.03;;;4.75;;
7108;SDS011;29079;41.930;25.558;2023-01-06T03:52:40;9.60;;;5.45;;
7108;SDS011;29079;41.930;25.558;2023-01-06T03:55:17;7.43;;;4.70;;
7108;SDS011;29079;41.930;25.558;2023-01-06T03:57:55;5.93;;;3.45;;
7108;SDS011;29079;41.930;25.558;2023-01-06T04:00:31;7.43;;;4.32;;
7108;SDS011;29079;41.930;25.558;2023-01-06T04:03:10;7.45;;;3.63;;
7108;SDS011;29079;41.930;25.558;2023-01-06T04:05:45;7.38;;;3.78;;
7108;SDS011;29079;41.930;25.558;2023-01-06T04:08:20;7.10;;;4.50;;
7108;SDS011;29079;41.930;25.558;2023-01-06T04:10:54;5.10;;;3.83;;
7108;SDS011;29079;41.930;25.558;2023-01-06T04:13:28;10.15;;;4.72;;
7108;SDS011;29079;41.930;25.558;2023-01-06T04:16:01;6.63;;;3.72;;
7108;SDS011;29079;41.930;25.558;2023-01-06T04:18:34;6.40;;;4.65;;
7108;SDS011;29079;41.930;25.558;2023-01-06T04:21:07;5.22;;;3.60;;
7108;SDS011;29079;41.930;25.558;2023-01-06T04:23:42;6.28;;;3.78;;
7108;SDS011;29079;41.930;25.558;2023-01-06T04:26:16;7.13;;;4.10;;
7108;SDS011;29079;41.930;25.558;2023-01-06T04:28:49;6.00;;;3.67;;
7108;SDS011;29079;41.930;25.558;2023-01-06T04:31:22;8.18;;;4.22;;
7108;SDS011;29079;41.930;25.558;2023-01-06T04:33:56;8.93;;;4.90;;
7108;SDS011;29079;41.930;25.558;2023-01-06T04:36:29;5.30;;;3.65;;
7108;SDS011;29079;41.930;25.558;2023-01-06T04:39:04;6.10;;;3.78;;
7108;SDS011;29079;41.930;25.558;2023-01-06T04:41:37;6.90;;;3.92;;
7108;SDS011;29079;41.930;25.558;2023-01-06T04:44:10;6.97;;;4.40;;
7108;SDS011;29079;41.930;25.558;2023-01-06T04:46:44;6.80;;;4.38;;
7108;SDS011;29079;41.930;25.558;2023-01-06T04:49:17;7.50;;;4.50;;
7108;SDS011;29079;41.930;25.558;2023-01-06T04:51:51;10.57;;;4.47;;
7108;SDS011;29079;41.930;25.558;2023-01-06T04:54:26;5.00;;;3.75;;
7108;SDS011;29079;41.930;25.558;2023-01-06T04:57:00;6.88;;;4.43;;
7108;SDS011;29079;41.930;25.558;2023-01-06T04:59:33;8.07;;;4.72;;
7108;SDS011;29079;41.930;25.558;2023-01-06T05:02:07;7.75;;;4.93;;
7108;SDS011;29079;41.930;25.558;2023-01-06T05:04:40;7.43;;;4.30;;
7108;SDS011;29079;41.930;25.558;2023-01-06T05:07:18;8.07;;;4.55;;
7108;SDS011;29079;41.930;25.558;2023-01-06T05:09:53;9.25;;;4.93;;
7108;SDS011;29079;41.930;25.558;2023-01-06T05:12:36;7.95;;;5.40;;
7108;SDS011;29079;41.930;25.558;2023-01-06T05:15:10;6.57;;;4.40;;
7108;SDS011;29079;41.930;25.558;2023-01-06T05:17:44;7.85;;;5.15;;
7108;SDS011;29079;41.930;25.558;2023-01-06T05:20:17;12.57;;;6.22;;
7108;SDS011;29079;41.930;25.558;2023-01-06T05:22:50;8.15;;;5.00;;
7108;SDS011;29079;41.930;25.558;2023-01-06T05:25:25;7.25;;;4.85;;
7108;SDS011;29079;41.930;25.558;2023-01-06T05:27:59;10.38;;;5.55;;
7108;SDS011;29079;41.930;25.558;2023-01-06T05:30:32;9.23;;;5.97;;
7108;SDS011;29079;41.930;25.558;2023-01-06T05:33:05;8.25;;;5.38;;
7108;SDS011;29079;41.930;25.558;2023-01-06T05:35:39;13.52;;;6.63;;
7108;SDS011;29079;41.930;25.558;2023-01-06T05:38:12;6.32;;;4.50;;
7108;SDS011;29079;41.930;25.558;2023-01-06T05:40:50;4.72;;;3.85;;
7108;SDS011;29079;41.930;25.558;2023-01-06T05:43:24;10.93;;;5.45;;
7108;SDS011;29079;41.930;25.558;2023-01-06T05:45:58;6.75;;;5.15;;
7108;SDS011;29079;41.930;25.558;2023-01-06T05:48:36;6.00;;;4.45;;
7108;SDS011;29079;41.930;25.558;2023-01-06T05:51:11;9.45;;;5.07;;
7108;SDS011;29079;41.930;25.558;2023-01-06T05:53:46;11.55;;;6.38;;
7108;SDS011;29079;41.930;25.558;2023-01-06T05:56:22;10.10;;;5.60;;
7108;SDS011;29079;41.930;25.558;2023-01-06T05:58:55;10.23;;;6.07;;
7108;SDS011;29079;41.930;25.558;2023-01-06T06:01:29;9.07;;;4.97;;
7108;SDS011;29079;41.930;25.558;2023-01-06T06:04:03;13.13;;;6.35;;
7108;SDS011;29079;41.930;25.558;2023-01-06T06:06:37;10.77;;;4.95;;
7108;SDS011;29079;41.930;25.558;2023-01-06T06:09:10;8.68;;;4.28;;
7108;SDS011;29079;41.930;25.558;2023-01-06T06:11:52;12.63;;;5.22;;
7108;SDS011;29079;41.930;25.558;2023-01-06T06:14:25;16.02;;;6.07;;
7108;SDS011;29079;41.930;25.558;2023-01-06T06:16:59;6.18;;;4.45;;
7108;SDS011;29079;41.930;25.558;2023-01-06T06:19:33;9.65;;;5.13;;
7108;SDS011;29079;41.930;25.558;2023-01-06T06:22:06;8.20;;;4.13;;
7108;SDS011;29079;41.930;25.558;2023-01-06T06:24:41;16.13;;;7.78;;
7108;SDS011;29079;41.930;25.558;2023-01-06T06:27:16;9.77;;;4.05;;
7108;SDS011;29079;41.930;25.558;2023-01-06T06:29:50;8.55;;;4.70;;
7108;SDS011;29079;41.930;25.558;2023-01-06T06:32:23;9.05;;;4.55;;
7108;SDS011;29079;41.930;25.558;2023-01-06T06:34:57;20.77;;;9.77;;
7108;SDS011;29079;41.930;25.558;2023-01-06T06:37:30;13.13;;;5.05;;
7108;SDS011;29079;41.930;25.558;2023-01-06T06:40:04;9.80;;;5.25;;
7108;SDS011;29079;41.930;25.558;2023-01-06T06:42:40;11.60;;;4.25;;
7108;SDS011;29079;41.930;25.558;2023-01-06T06:45:13;7.72;;;3.17;;
7108;SDS011;29079;41.930;25.558;2023-01-06T06:47:52;10.73;;;4.25;;
7108;SDS011;29079;41.930;25.558;2023-01-06T06:50:26;9.75;;;3.65;;
7108;SDS011;29079;41.930;25.558;2023-01-06T06:53:00;5.13;;;3.58;;
7108;SDS011;29079;41.930;25.558;2023-01-06T06:58:08;7.03;;;3.58;;
7108;SDS011;29079;41.930;25.558;2023-01-06T07:00:41;10.57;;;4.78;;
7108;SDS011;29079;41.930;25.558;2023-01-06T07:03:15;12.45;;;3.53;;
7108;SDS011;29079;41.930;25.558;2023-01-06T07:05:48;9.20;;;3.83;;
7108;SDS011;29079;41.930;25.558;2023-01-06T07:08:23;8.25;;;4.10;;
7108;SDS011;29079;41.930;25.558;2023-01-06T07:10:58;8.85;;;4.20;;
7108;SDS011;29079;41.930;25.558;2023-01-06T07:13:34;12.98;;;5.63;;
7108;SDS011;29079;41.930;25.558;2023-01-06T07:16:07;7.20;;;3.50;;
7108;SDS011;29079;41.930;25.558;2023-01-06T07:18:42;8.35;;;3.50;;
7108;SDS011;29079;41.930;25.558;2023-01-06T07:21:15;4.78;;;2.92;;
7108;SDS011;29079;41.930;25.558;2023-01-06T07:23:49;8.52;;;3.28;;
7108;SDS011;29079;41.930;25.558;2023-01-06T07:26:22;6.40;;;3.45;;
7108;SDS011;29079;41.930;25.558;2023-01-06T07:28:57;5.00;;;3.63;;
7108;SDS011;29079;41.930;25.558;2023-01-06T07:31:30;9.50;;;4.32;;
7108;SDS011;29079;41.930;25.558;2023-01-06T07:34:04;9.60;;;4.13;;
7108;SDS011;29079;41.930;25.558;2023-01-06T07:36:37;4.45;;;2.75;;
7108;SDS011;29079;41.930;25.558;2023-01-06T07:39:11;7.68;;;3.83;;
7108;SDS011;29079;41.930;25.558;2023-01-06T07:41:44;5.25;;;3.08;;
7108;SDS011;29079;41.930;25.558;2023-01-06T07:44:19;6.88;;;3.78;;
7108;SDS011;29079;41.930;25.558;2023-01-06T07:46:52;10.05;;;3.50;;
7108;SDS011;29079;41.930;25.558;2023-01-06T07:49:26;3.95;;;2.45;;
7108;SDS011;29079;41.930;25.558;2023-01-06T07:51:59;6.80;;;2.92;;
7108;SDS011;29079;41.930;25.558;2023-01-06T07:54:33;4.13;;;2.60;;
7108;SDS011;29079;41.930;25.558;2023-01-06T07:57:06;4.65;;;2.50;;
7108;SDS011;29079;41.930;25.558;2023-01-06T07:59:41;8.23;;;3.08;;
7108;SDS011;29079;41.930;25.558;2023-01-06T08:02:15;14.43;;;3.25;;
7108;SDS011;29079;41.930;25.558;2023-01-06T08:04:48;5.05;;;2.75;;
7108;SDS011;29079;41.930;25.558;2023-01-06T08:07:21;4.45;;;2.55;;
7108;SDS011;29079;41.930;25.558;2023-01-06T08:09:55;3.75;;;2.30;;
7108;SDS011;29079;41.930;25.558;2023-01-06T08:15:04;6.80;;;2.78;;
7108;SDS011;29079;41.930;25.558;2023-01-06T08:17:39;3.50;;;2.88;;
7108;SDS011;29079;41.930;25.558;2023-01-06T08:20:13;5.85;;;2.40;;
7108;SDS011;29079;41.930;25.558;2023-01-06T08:22:47;6.05;;;2.78;;
7108;SDS011;29079;41.930;25.558;2023-01-06T08:25:20;3.13;;;2.83;;
7108;SDS011;29079;41.930;25.558;2023-01-06T08:27:53;9.80;;;3.33;;
7108;SDS011;29079;41.930;25.558;2023-01-06T08:30:30;7.15;;;2.80;;
7108;SDS011;29079;41.930;25.558;2023-01-06T08:33:10;5.97;;;3.53;;
7108;SDS011;29079;41.930;25.558;2023-01-06T08:35:44;9.38;;;8.20;;
7108;SDS011;29079;41.930;25.558;2023-01-06T08:38:18;5.22;;;2.92;;
7108;SDS011;29079;41.930;25.558;2023-01-06T08:40:52;6.82;;;3.28;;
7108;SDS011;29079;41.930;25.558;2023-01-06T08:46:02;6.15;;;2.60;;
7108;SDS011;29079;41.930;25.558;2023-01-06T08:48:38;5.10;;;2.80;;
7108;SDS011;29079;41.930;25.558;2023-01-06T08:51:11;5.97;;;2.70;;
7108;SDS011;29079;41.930;25.558;2023-01-06T08:53:48;3.78;;;2.28;;
7108;SDS011;29079;41.930;25.558;2023-01-06T08:56:22;3.55;;;2.53;;
7108;SDS011;29079;41.930;25.558;2023-01-06T08:58:58;4.07;;;2.67;;
7108;SDS011;29079;41.930;25.558;2023-01-06T09:01:34;10.68;;;3.58;;
7108;SDS011;29079;41.930;25.558;2023-01-06T09:04:08;3.83;;;2.65;;
7108;SDS011;29079;41.930;25.558;2023-01-06T09:06:43;5.72;;;3.40;;
7108;SDS011;29079;41.930;25.558;2023-01-06T09:09:18;3.47;;;2.95;;
7108;SDS011;29079;41.930;25.558;2023-01-06T09:11:53;8.32;;;3.67;;
7108;SDS011;29079;41.930;25.558;2023-01-06T09:17:02;7.70;;;2.72;;
7108;SDS011;29079;41.930;25.558;2023-01-06T09:19:36;6.60;;;2.83;;
7108;SDS011;29079;41.930;25.558;2023-01-06T09:22:09;5.45;;;3.10;;
7108;SDS011;29079;41.930;25.558;2023-01-06T09:24:43;5.00;;;2.25;;
7108;SDS011;29079;41.930;25.558;2023-01-06T09:27:16;6.95;;;4.28;;
7108;SDS011;29079;41.930;25.558;2023-01-06T09:32:25;6.03;;;2.97;;
7108;SDS011;29079;41.930;25.558;2023-01-06T09:34:58;3.88;;;2.58;;
7108;SDS011;29079;41.930;25.558;2023-01-06T09:37:32;5.22;;;3.30;;
7108;SDS011;29079;41.930;25.558;2023-01-06T09:40:06;4.80;;;2.83;;
7108;SDS011;29079;41.930;25.558;2023-01-06T09:42:44;7.22;;;3.40;;
7108;SDS011;29079;41.930;25.558;2023-01-06T09:45:29;10.23;;;5.13;;
7108;SDS011;29079;41.930;25.558;2023-01-06T09:48:12;5.68;;;3.53;;
7108;SDS011;29079;41.930;25.558;2023-01-06T09:50:49;8.88;;;4.28;;
7108;SDS011;29079;41.930;25.558;2023-01-06T09:53:27;15.00;;;5.43;;
7108;SDS011;29079;41.930;25.558;2023-01-06T09:56:04;9.80;;;6.47;;
7108;SDS011;29079;41.930;25.558;2023-01-06T09:58:41;10.57;;;6.03;;
7108;SDS011;29079;41.930;25.558;2023-01-06T10:01:21;7.95;;;7.25;;
7108;SDS011;29079;41.930;25.558;2023-01-06T10:04:02;6.93;;;3.13;;
7108;SDS011;29079;41.930;25.558;2023-01-06T10:06:36;3.42;;;1.85;;
7108;SDS011;29079;41.930;25.558;2023-01-06T10:09:18;5.68;;;2.05;;
7108;SDS011;29079;41.930;25.558;2023-01-06T10:12:00;3.47;;;2.08;;
7108;SDS011;29079;41.930;25.558;2023-01-06T10:14:48;4.40;;;2.50;;
7108;SDS011;29079;41.930;25.558;2023-01-06T10:17:36;11.23;;;2.65;;
7108;SDS011;29079;41.930;25.558;2023-01-06T10:20:29;2.75;;;1.80;;
7108;SDS011;29079;41.930;25.558;2023-01-06T10:23:23;3.42;;;1.90;;
7108;SDS011;29079;41.930;25.558;2023-01-06T10:26:10;7.03;;;1.90;;
7108;SDS011;29079;41.930;25.558;2023-01-06T10:28:45;4.35;;;2.63;;
7108;SDS011;29079;41.930;25.558;2023-01-06T10:31:24;5.25;;;2.00;;
7108;SDS011;29079;41.930;25.558;2023-01-06T10:34:03;3.15;;;1.85;;
7108;SDS011;29079;41.930;25.558;2023-01-06T10:36:52;6.35;;;4.18;;
7108;SDS011;29079;41.930;25.558;2023-01-06T10:39:29;6.60;;;2.60;;
7108;SDS011;29079;41.930;25.558;2023-01-06T10:42:05;4.68;;;2.78;;
7108;SDS011;29079;41.930;25.558;2023-01-06T10:45:09;3.08;;;2.00;;
7108;SDS011;29079;41.930;25.558;2023-01-06T10:47:43;3.50;;;2.22;;
7108;SDS011;29079;41.930;25.558;2023-01-06T10:50:17;5.07;;;2.22;;
7108;SDS011;29079;41.930;25.558;2023-01-06T10:52:53;7.00;;;2.33;;
7108;SDS011;29079;41.930;25.558;2023-01-06T10:58:27;2.70;;;1.95;;
7108;SDS011;29079;41.930;25.558;2023-01-06T11:01:07;2.42;;;2.10;;
7108;SDS011;29079;41.930;25.558;2023-01-06T11:03:42;3.50;;;1.80;;
7108;SDS011;29079;41.930;25.558;2023-01-06T11:06:20;2.75;;;1.95;;
7108;SDS011;29079;41.930;25.558;2023-01-06T11:08:59;3.63;;;2.00;;
7108;SDS011;29079;41.930;25.558;2023-01-06T11:11:48;4.75;;;2.08;;
7108;SDS011;29079;41.930;25.558;2023-01-06T11:14:26;4.32;;;2.20;;
7108;SDS011;29079;41.930;25.558;2023-01-06T11:17:03;2.90;;;2.00;;
7108;SDS011;29079;41.930;25.558;2023-01-06T11:19:40;2.88;;;1.90;;
7108;SDS011;29079;41.930;25.558;2023-01-06T11:22:30;4.68;;;1.90;;
7108;SDS011;29079;41.930;25.558;2023-01-06T11:25:21;7.35;;;2.67;;
7108;SDS011;29079;41.930;25.558;2023-01-06T11:28:12;4.28;;;2.60;;
7108;SDS011;29079;41.930;25.558;2023-01-06T11:30:49;2.95;;;1.90;;
7108;SDS011;29079;41.930;25.558;2023-01-06T11:33:24;2.70;;;1.70;;
7108;SDS011;29079;41.930;25.558;2023-01-06T11:36:05;1.52;;;1.40;;
7108;SDS011;29079;41.930;25.558;2023-01-06T11:38:42;4.95;;;2.90;;
7108;SDS011;29079;41.930;25.558;2023-01-06T11:41:26;5.45;;;1.70;;
7108;SDS011;29079;41.930;25.558;2023-01-06T11:44:05;2.45;;;1.77;;
7108;SDS011;29079;41.930;25.558;2023-01-06T11:46:45;3.65;;;1.58;;
7108;SDS011;29079;41.930;25.558;2023-01-06T11:49:22;2.78;;;1.95;;
7108;SDS011;29079;41.930;25.558;2023-01-06T11:51:59;4.25;;;2.50;;
7108;SDS011;29079;41.930;25.558;2023-01-06T11:54:35;4.03;;;2.65;;
7108;SDS011;29079;41.930;25.558;2023-01-06T11:57:22;4.55;;;2.33;;
7108;SDS011;29079;41.930;25.558;2023-01-06T12:00:09;5.88;;;2.22;;
7108;SDS011;29079;41.930;25.558;2023-01-06T12:02:57;2.45;;;1.90;;
7108;SDS011;29079;41.930;25.558;2023-01-06T12:05:42;2.15;;;1.98;;
7108;SDS011;29079;41.930;25.558;2023-01-06T12:08:21;2.83;;;1.92;;
7108;SDS011;29079;41.930;25.558;2023-01-06T12:10:57;3.65;;;2.53;;
7108;SDS011;29079;41.930;25.558;2023-01-06T12:13:39;3.50;;;2.03;;
7108;SDS011;29079;41.930;25.558;2023-01-06T12:16:30;2.15;;;1.95;;
7108;SDS011;29079;41.930;25.558;2023-01-06T12:19:12;4.10;;;2.25;;
7108;SDS011;29079;41.930;25.558;2023-01-06T12:21:48;2.65;;;2.45;;
7108;SDS011;29079;41.930;25.558;2023-01-06T12:24:23;2.72;;;1.65;;
7108;SDS011;29079;41.930;25.558;2023-01-06T12:27:00;3.95;;;2.10;;
7108;SDS011;29079;41.930;25.558;2023-01-06T12:29:37;3.42;;;2.22;;
7108;SDS011;29079;41.930;25.558;2023-01-06T12:32:12;4.22;;;2.03;;
7108;SDS011;29079;41.930;25.558;2023-01-06T12:34:50;4.30;;;2.50;;
7108;SDS011;29079;41.930;25.558;2023-01-06T12:37:27;3.60;;;1.90;;
7108;SDS011;29079;41.930;25.558;2023-01-06T12:40:08;2.42;;;1.75;;
7108;SDS011;29079;41.930;25.558;2023-01-06T12:42:49;2.57;;;2.37;;
7108;SDS011;29079;41.930;25.558;2023-01-06T12:45:31;3.53;;;2.38;;
7108;SDS011;29079;41.930;25.558;2023-01-06T12:48:15;3.65;;;1.80;;
7108;SDS011;29079;41.930;25.558;2023-01-06T12:50:56;1.58;;;1.45;;
7108;SDS011;29079;41.930;25.558;2023-01-06T12:53:34;4.22;;;2.03;;
7108;SDS011;29079;41.930;25.558;2023-01-06T12:56:23;2.67;;;1.73;;
7108;SDS011;29079;41.930;25.558;2023-01-06T12:59:09;4.22;;;2.05;;
7108;SDS011;29079;41.930;25.558;2023-01-06T13:01:52;3.75;;;2.45;;
7108;SDS011;29079;41.930;25.558;2023-01-06T13:04:52;4.93;;;2.45;;
7108;SDS011;29079;41.930;25.558;2023-01-06T13:07:46;2.70;;;1.88;;
7108;SDS011;29079;41.930;25.558;2023-01-06T13:10:29;6.18;;;2.08;;
7108;SDS011;29079;41.930;25.558;2023-01-06T13:16:09;4.68;;;2.35;;
7108;SDS011;29079;41.930;25.558;2023-01-06T13:18:54;4.25;;;2.05;;
7108;SDS011;29079;41.930;25.558;2023-01-06T13:21:35;3.35;;;1.90;;
7108;SDS011;29079;41.930;25.558;2023-01-06T13:24:26;2.22;;;2.00;;
7108;SDS011;29079;41.930;25.558;2023-01-06T13:27:26;3.72;;;1.67;;
7108;SDS011;29079;41.930;25.558;2023-01-06T13:30:23;1.95;;;1.48;;
7108;SDS011;29079;41.930;25.558;2023-01-06T13:33:21;2.88;;;1.80;;
7108;SDS011;29079;41.930;25.558;2023-01-06T13:36:22;3.25;;;2.20;;
7108;SDS011;29079;41.930;25.558;2023-01-06T13:39:18;2.78;;;2.03;;
7108;SDS011;29079;41.930;25.558;2023-01-06T13:41:56;2.53;;;1.45;;
7108;SDS011;29079;41.930;25.558;2023-01-06T13:44:34;2.53;;;1.50;;
7108;SDS011;29079;41.930;25.558;2023-01-06T13:47:11;2.38;;;2.03;;
7108;SDS011;29079;41.930;25.558;2023-01-06T13:49:48;3.70;;;2.28;;
7108;SDS011;29079;41.930;25.558;2023-01-06T13:52:24;3.63;;;2.00;;
7108;SDS011;29079;41.930;25.558;2023-01-06T13:55:20;5.72;;;2.58;;
7108;SDS011;29079;41.930;25.558;2023-01-06T13:57:57;4.75;;;2.60;;
7108;SDS011;29079;41.930;25.558;2023-01-06T14:01:07;6.55;;;2.80;;
7108;SDS011;29079;41.930;25.558;2023-01-06T14:03:41;4.63;;;2.95;;
7108;SDS011;29079;41.930;25.558;2023-01-06T14:06:42;4.70;;;2.50;;
7108;SDS011;29079;41.930;25.558;2023-01-06T14:09:17;2.88;;;2.00;;
7108;SDS011;29079;41.930;25.558;2023-01-06T14:11:54;4.47;;;3.50;;
7108;SDS011;29079;41.930;25.558;2023-01-06T14:14:40;6.20;;;3.00;;
7108;SDS011;29079;41.930;25.558;2023-01-06T14:17:25;6.32;;;3.30;;
7108;SDS011;29079;41.930;25.558;2023-01-06T14:20:02;4.40;;;2.70;;
7108;SDS011;29079;41.930;25.558;2023-01-06T14:22:36;6.85;;;3.95;;
7108;SDS011;29079;41.930;25.558;2023-01-06T14:25:20;5.65;;;2.95;;
7108;SDS011;29079;41.930;25.558;2023-01-06T14:28:05;4.07;;;2.95;;
7108;SDS011;29079;41.930;25.558;2023-01-06T14:34:19;7.15;;;3.85;;
7108;SDS011;29079;41.930;25.558;2023-01-06T14:36:53;6.57;;;3.70;;
7108;SDS011;29079;41.930;25.558;2023-01-06T14:39:28;7.90;;;4.32;;
7108;SDS011;29079;41.930;25.558;2023-01-06T14:42:06;10.68;;;3.97;;
7108;SDS011;29079;41.930;25.558;2023-01-06T14:44:48;8.30;;;4.10;;
7108;SDS011;29079;41.930;25.558;2023-01-06T14:47:26;6.63;;;4.47;;
7108;SDS011;29079;41.930;25.558;2023-01-06T14:50:04;8.40;;;4.53;;
7108;SDS011;29079;41.930;25.558;2023-01-06T14:52:46;5.85;;;3.58;;
7108;SDS011;29079;41.930;25.558;2023-01-06T14:55:25;7.95;;;4.25;;
7108;SDS011;29079;41.930;25.558;2023-01-06T14:58:02;8.45;;;5.15;;
7108;SDS011;29079;41.930;25.558;2023-01-06T15:00:36;9.75;;;5.25;;
7108;SDS011;29079;41.930;25.558;2023-01-06T15:03:18;6.65;;;4.43;;
7108;SDS011;29079;41.930;25.558;2023-01-06T15:06:07;8.75;;;5.57;;
7108;SDS011;29079;41.930;25.558;2023-01-06T15:08:42;9.40;;;4.90;;
7108;SDS011;29079;41.930;25.558;2023-01-06T15:11:20;10.48;;;5.93;;
7108;SDS011;29079;41.930;25.558;2023-01-06T15:13:58;12.02;;;7.30;;
7108;SDS011;29079;41.930;25.558;2023-01-06T15:16:32;8.95;;;6.22;;
7108;SDS011;29079;41.930;25.558;2023-01-06T15:19:08;12.07;;;6.55;;
7108;SDS011;29079;41.930;25.558;2023-01-06T15:21:47;11.13;;;6.70;;
7108;SDS011;29079;41.930;25.558;2023-01-06T15:24:24;16.98;;;7.63;;
7108;SDS011;29079;41.930;25.558;2023-01-06T15:27:02;13.82;;;7.68;;
7108;SDS011;29079;41.930;25.558;2023-01-06T15:29:39;11.63;;;5.85;;
7108;SDS011;29079;41.930;25.558;2023-01-06T15:32:22;11.25;;;6.28;;
7108;SDS011;29079;41.930;25.558;2023-01-06T15:34:58;10.07;;;5.50;;
7108;SDS011;29079;41.930;25.558;2023-01-06T15:37:31;8.93;;;4.90;;
7108;SDS011;29079;41.930;25.558;2023-01-06T15:40:06;9.50;;;4.93;;
7108;SDS011;29079;41.930;25.558;2023-01-06T15:42:42;7.57;;;4.50;;
7108;SDS011;29079;41.930;25.558;2023-01-06T15:47:59;9.73;;;5.07;;
7108;SDS011;29079;41.930;25.558;2023-01-06T15:50:39;9.50;;;4.85;;
7108;SDS011;29079;41.930;25.558;2023-01-06T15:53:17;10.15;;;6.18;;
7108;SDS011;29079;41.930;25.558;2023-01-06T15:55:55;7.32;;;4.70;;
7108;SDS011;29079;41.930;25.558;2023-01-06T15:58:29;8.98;;;5.72;;
7108;SDS011;29079;41.930;25.558;2023-01-06T16:01:10;6.18;;;4.43;;
7108;SDS011;29079;41.930;25.558;2023-01-06T16:03:47;6.70;;;3.90;;
7108;SDS011;29079;41.930;25.558;2023-01-06T16:06:24;9.30;;;4.50;;
7108;SDS011;29079;41.930;25.558;2023-01-06T16:12:14;6.55;;;5.30;;
7108;SDS011;29079;41.930;25.558;2023-01-06T16:14:50;12.30;;;6.25;;
7108;SDS011;29079;41.930;25.558;2023-01-06T16:17:26;8.35;;;5.03;;
7108;SDS011;29079;41.930;25.558;2023-01-06T16:20:03;9.15;;;4.97;;
7108;SDS011;29079;41.930;25.558;2023-01-06T16:22:39;8.60;;;5.88;;
7108;SDS011;29079;41.930;25.558;2023-01-06T16:25:21;8.05;;;4.63;;
7108;SDS011;29079;41.930;25.558;2023-01-06T16:27:56;10.82;;;5.05;;
7108;SDS011;29079;41.930;25.558;2023-01-06T16:30:31;8.73;;;5.07;;
7108;SDS011;29079;41.930;25.558;2023-01-06T16:36:14;6.45;;;4.50;;
7108;SDS011;29079;41.930;25.558;2023-01-06T16:38:49;13.70;;;5.15;;